createdAt,value
2023-01-12T00:01:32.239Z,100992.88
2023-01-12T00:03:59.289Z,100990.22
2023-01-12T00:06:26.340Z,100993.66
2023-01-12T00:08:53.308Z,100983.19
2023-01-12T00:11:21.337Z,100981.44
2023-01-12T00:13:48.225Z,100979.84
2023-01-12T00:16:39.605Z,100975.50
2023-01-12T00:19:18.440Z,100976.31
2023-01-12T00:21:56.965Z,100978.00
2023-01-12T00:24:34.752Z,100959.81
2023-01-12T00:27:05.030Z,100959.81
2023-01-12T00:29:32.009Z,100968.53
2023-01-12T00:32:00.730Z,100950.38
2023-01-12T00:34:29.722Z,100958.22
2023-01-12T00:36:56.843Z,100941.88
2023-01-12T00:39:23.343Z,100946.13
2023-01-12T00:42:08.270Z,100946.22
2023-01-12T00:44:52.988Z,100945.31
2023-01-12T00:47:19.562Z,100931.50
2023-01-12T00:49:46.613Z,100932.41
2023-01-12T00:52:29.346Z,100935.00
2023-01-12T00:54:59.429Z,100934.13
2023-01-12T00:57:26.302Z,100935.00
2023-01-12T00:59:55.321Z,100928.88
2023-01-12T01:02:22.434Z,100923.69
2023-01-12T01:04:50.628Z,100918.44
2023-01-12T01:07:18.298Z,100915.81
2023-01-12T01:09:44.809Z,100913.22
2023-01-12T01:12:11.330Z,100918.50
2023-01-12T01:14:37.837Z,100910.78
2023-01-12T01:17:04.321Z,100896.09
2023-01-12T01:19:30.926Z,100897.78
2023-01-12T01:21:57.359Z,100896.06
2023-01-12T01:24:23.935Z,100881.44
2023-01-12T01:26:51.519Z,100890.88
2023-01-12T01:29:18.467Z,100885.69
2023-01-12T01:31:47.551Z,100877.91
2023-01-12T01:34:14.273Z,100874.56
2023-01-12T01:36:40.723Z,100866.78
2023-01-12T01:39:07.177Z,100865.00
2023-01-12T01:41:33.671Z,100861.50
2023-01-12T01:44:02.611Z,100863.19
2023-01-12T01:46:38.539Z,100850.28
2023-01-12T01:49:10.375Z,100849.44
2023-01-12T01:51:36.989Z,100848.47
2023-01-12T01:54:04.344Z,100838.94
2023-01-12T01:56:33.458Z,100844.06
2023-01-12T01:59:22.353Z,100843.13
2023-01-12T02:01:49.203Z,100830.16
2023-01-12T02:04:16.572Z,100821.53
2023-01-12T02:06:43.551Z,100827.50
2023-01-12T02:09:16.536Z,100828.25
2023-01-12T02:12:02.110Z,100821.25
2023-01-12T02:14:47.634Z,100827.28
2023-01-12T02:17:44.239Z,100804.69
2023-01-12T02:20:13.694Z,100809.06
2023-01-12T02:23:08.064Z,100814.25
2023-01-12T02:26:12.543Z,100809.91
2023-01-12T02:28:57.182Z,100810.72
2023-01-12T02:31:43.321Z,100784.06
2023-01-12T02:34:38.175Z,100785.88
2023-01-12T02:37:17.888Z,100781.69
2023-01-12T02:39:58.929Z,100772.22
2023-01-12T02:42:44.107Z,100779.16
2023-01-12T02:45:22.542Z,100768.88
2023-01-12T02:48:00.571Z,100754.19
2023-01-12T02:50:35.979Z,100754.19
2023-01-12T02:53:24.618Z,100753.31
2023-01-12T02:55:52.388Z,100756.81
2023-01-12T02:58:22.471Z,100741.31
2023-01-12T03:00:54.328Z,100725.81
2023-01-12T03:03:21.278Z,100725.81
2023-01-12T03:05:47.717Z,100726.66
2023-01-12T03:08:18.260Z,100718.03
2023-01-12T03:11:00.434Z,100710.25
2023-01-12T03:13:29.976Z,100713.69
2023-01-12T03:15:58.148Z,100701.53
2023-01-12T03:18:47.707Z,100710.16
2023-01-12T03:21:32.758Z,100697.13
2023-01-12T03:24:08.766Z,100688.50
2023-01-12T03:26:39.007Z,100684.16
2023-01-12T03:29:35.313Z,100685.06
2023-01-12T03:32:02.529Z,100682.47
2023-01-12T03:34:29.198Z,100676.41
2023-01-12T03:37:03.426Z,100655.75
2023-01-12T03:39:36.508Z,100660.16
2023-01-12T03:42:17.298Z,100644.66
2023-01-12T03:45:12.808Z,100635.22
2023-01-12T03:47:49.357Z,100624.88
2023-01-12T03:50:22.436Z,100617.19
2023-01-12T03:52:50.078Z,100602.50
2023-01-12T03:55:19.333Z,100606.88
2023-01-12T03:57:47.383Z,100581.00
2023-01-12T04:00:15.932Z,100571.53
2023-01-12T04:02:45.958Z,100556.03
2023-01-12T04:05:14.174Z,100535.38
2023-01-12T04:07:41.310Z,100514.69
2023-01-12T04:10:08.407Z,100504.28
2023-01-12T04:12:34.836Z,100505.28
2023-01-12T04:15:01.266Z,100485.44
2023-01-12T04:17:29.203Z,100490.72
2023-01-12T04:19:55.645Z,100470.88
2023-01-12T04:22:40.768Z,100462.25
2023-01-12T04:25:09.505Z,100450.13
2023-01-12T04:27:36.461Z,100430.28
2023-01-12T04:30:03.600Z,100444.94
2023-01-12T04:32:29.998Z,100440.56
2023-01-12T04:34:56.451Z,100443.16
2023-01-12T04:37:22.952Z,100415.56
2023-01-12T04:39:49.375Z,100389.59
2023-01-12T04:42:34.584Z,100399.97
2023-01-12T04:45:01.040Z,100418.97
2023-01-12T04:47:27.457Z,100413.78
2023-01-12T04:49:53.911Z,100416.31
2023-01-12T04:52:20.382Z,100407.72
2023-01-12T04:54:46.804Z,100406.78
2023-01-12T04:57:13.225Z,100397.91
2023-01-12T04:59:39.621Z,100390.81
2023-01-12T05:02:06.149Z,100375.16
2023-01-12T05:04:32.662Z,100385.56
2023-01-12T05:06:59.066Z,100380.22
2023-01-12T05:09:44.346Z,100367.03
2023-01-12T05:12:10.847Z,100359.97
2023-01-12T05:14:37.286Z,100358.94
2023-01-12T05:17:03.729Z,100389.25
2023-01-12T05:19:30.112Z,100325.97
2023-01-12T05:21:56.522Z,100368.47
2023-01-12T05:24:22.961Z,100365.81
2023-01-12T05:26:49.383Z,100347.56
2023-01-12T05:29:16.774Z,100389.91
2023-01-12T05:31:43.256Z,100368.25
2023-01-12T05:34:09.694Z,100364.81
2023-01-12T05:36:36.166Z,100353.59
2023-01-12T05:39:04.924Z,100364.91
2023-01-12T05:41:31.338Z,100364.06
2023-01-12T05:43:57.737Z,100369.16
2023-01-12T05:46:25.420Z,100379.53
2023-01-12T05:48:53.431Z,100379.41
2023-01-12T05:51:20.416Z,100348.25
2023-01-12T05:53:47.712Z,100356.88
2023-01-12T05:56:22.435Z,100356.03
2023-01-12T05:58:53.788Z,100348.25
2023-01-12T06:01:21.493Z,100354.38
2023-01-12T06:03:49.732Z,100371.63
2023-01-12T06:06:16.835Z,100367.34
2023-01-12T06:08:43.279Z,100378.63
2023-01-12T06:11:29.715Z,100373.44
2023-01-12T06:13:58.975Z,100366.53
2023-01-12T06:16:25.969Z,100369.94
2023-01-12T06:18:52.544Z,100380.25
2023-01-12T06:21:19.169Z,100381.06
2023-01-12T06:23:46.330Z,100377.59
2023-01-12T06:26:12.940Z,100375.81
2023-01-12T06:28:40.670Z,100381.84
2023-01-12T06:31:09.557Z,100384.34
2023-01-12T06:33:36.507Z,100385.22
2023-01-12T06:36:03.281Z,100387.81
2023-01-12T06:38:32.374Z,100375.56
2023-01-12T06:41:06.176Z,100391.91
2023-01-12T06:43:32.854Z,100390.16
2023-01-12T06:45:59.552Z,100396.16
2023-01-12T06:48:26.113Z,100385.63
2023-01-12T06:51:03.164Z,100402.03
2023-01-12T06:53:29.684Z,100394.19
2023-01-12T06:55:56.152Z,100400.09
2023-01-12T06:58:22.554Z,100389.56
2023-01-12T07:00:49.109Z,100394.69
2023-01-12T07:03:17.615Z,100410.16
2023-01-12T07:05:44.590Z,100407.41
2023-01-12T07:08:14.448Z,100398.53
2023-01-12T07:10:41.020Z,100406.16
2023-01-12T07:13:07.592Z,100402.63
2023-01-12T07:15:33.993Z,100402.63
2023-01-12T07:18:00.512Z,100401.63
2023-01-12T07:20:28.584Z,100405.66
2023-01-12T07:22:55.771Z,100400.38
2023-01-12T07:25:22.318Z,100404.56
2023-01-12T07:27:53.716Z,100416.56
2023-01-12T07:30:23.656Z,100419.00
2023-01-12T07:32:50.852Z,100421.50
2023-01-12T07:35:18.122Z,100430.97
2023-01-12T07:37:52.365Z,100418.72
2023-01-12T07:40:18.864Z,100425.59
2023-01-12T07:42:45.324Z,100424.53
2023-01-12T07:45:12.216Z,100424.44
2023-01-12T07:47:38.796Z,100422.66
2023-01-12T07:50:05.602Z,100422.50
2023-01-12T07:52:32.203Z,100426.69
2023-01-12T07:54:58.673Z,100434.31
2023-01-12T07:57:25.119Z,100440.19
2023-01-12T07:59:51.572Z,100425.34
2023-01-12T08:02:19.283Z,100428.63
2023-01-12T08:04:46.540Z,100437.09
2023-01-12T08:07:13.743Z,100430.03
2023-01-12T08:09:40.204Z,100439.25
2023-01-12T08:12:06.624Z,100442.44
2023-01-12T08:14:39.596Z,100455.91
2023-01-12T08:17:19.295Z,100449.53
2023-01-12T08:20:00.724Z,100457.16
2023-01-12T08:22:36.955Z,100451.88
2023-01-12T08:25:11.819Z,100467.28
2023-01-12T08:27:43.711Z,100470.59
2023-01-12T08:30:14.193Z,100461.00
2023-01-12T08:32:41.413Z,100473.84
2023-01-12T08:35:09.168Z,100460.47
2023-01-12T08:37:35.764Z,100474.06
2023-01-12T08:40:04.772Z,100472.28
2023-01-12T08:42:31.980Z,100478.31
2023-01-12T08:44:58.595Z,100481.75
2023-01-12T08:47:27.420Z,100476.50
2023-01-12T08:49:54.567Z,100473.06
2023-01-12T08:52:21.503Z,100481.59
2023-01-12T08:54:49.679Z,100484.84
2023-01-12T08:57:16.988Z,100482.19
2023-01-12T08:59:43.648Z,100497.69
2023-01-12T09:02:15.274Z,100497.63
2023-01-12T09:04:42.212Z,100502.00
2023-01-12T09:07:10.007Z,100512.41
2023-01-12T09:09:37.099Z,100506.16
2023-01-12T09:12:04.315Z,100507.84
2023-01-12T09:14:30.819Z,100513.06
2023-01-12T09:16:57.514Z,100519.00
2023-01-12T09:19:24.390Z,100511.28
2023-01-12T09:21:50.763Z,100512.13
2023-01-12T09:24:17.336Z,100520.75
2023-01-12T09:26:46.228Z,100521.59
2023-01-12T09:29:14.131Z,100520.59
2023-01-12T09:31:43.763Z,100524.84
2023-01-12T09:34:10.428Z,100530.06
2023-01-12T09:36:40.444Z,100536.97
2023-01-12T09:39:18.632Z,100542.91
2023-01-12T09:42:11.189Z,100540.13
2023-01-12T09:45:11.112Z,100545.34
2023-01-12T09:47:40.063Z,100547.00
2023-01-12T09:50:16.848Z,100521.72
2023-01-12T09:52:47.056Z,100557.22
2023-01-12T09:55:16.023Z,100560.50
2023-01-12T09:58:19.497Z,100557.72
2023-01-12T10:00:55.110Z,100557.72
2023-01-12T10:03:38.849Z,100574.19
2023-01-12T10:06:07.010Z,100578.47
2023-01-12T10:08:41.343Z,100566.28
2023-01-12T10:11:10.759Z,100566.41
2023-01-12T10:14:06.392Z,100578.47
2023-01-12T10:16:58.730Z,100582.75
2023-01-12T10:19:28.694Z,100579.88
2023-01-12T10:21:56.181Z,100583.34
2023-01-12T10:24:25.437Z,100579.78
2023-01-12T10:27:00.450Z,100586.63
2023-01-12T10:29:27.129Z,100589.13
2023-01-12T10:31:53.566Z,100585.69
2023-01-12T10:34:20.205Z,100585.59
2023-01-12T10:36:55.785Z,100578.53
2023-01-12T10:39:28.348Z,100595.94
2023-01-12T10:42:36.093Z,100590.78
2023-01-12T10:45:13.575Z,100594.34
2023-01-12T10:47:41.536Z,100588.28
2023-01-12T10:50:23.570Z,100593.41
2023-01-12T10:52:56.083Z,100596.94
2023-01-12T10:55:24.081Z,100602.06
2023-01-12T10:57:52.684Z,100602.06
2023-01-12T11:00:24.137Z,100598.59
2023-01-12T11:02:52.522Z,100596.00
2023-01-12T11:05:38.532Z,100607.28
2023-01-12T11:08:27.225Z,100597.72
2023-01-12T11:10:54.209Z,100597.72
2023-01-12T11:13:36.644Z,100595.00
2023-01-12T11:16:19.498Z,100589.78
2023-01-12T11:19:07.924Z,100588.88
2023-01-12T11:21:39.349Z,100597.53
2023-01-12T11:24:15.639Z,100585.41
2023-01-12T11:26:56.697Z,100589.72
2023-01-12T11:29:47.071Z,100580.22
2023-01-12T11:32:36.373Z,100581.91
2023-01-12T11:35:32.197Z,100567.00
2023-01-12T11:38:08.677Z,100572.22
2023-01-12T11:40:37.712Z,100572.22
2023-01-12T11:43:51.003Z,100571.38
2023-01-12T11:46:34.848Z,100564.41
2023-01-12T11:49:21.257Z,100573.06
2023-01-12T11:51:51.288Z,100564.41
2023-01-12T11:54:19.187Z,100567.78
2023-01-12T11:56:51.788Z,100557.25
2023-01-12T11:59:18.164Z,100562.38
2023-01-12T12:02:21.504Z,100563.34
2023-01-12T12:05:04.456Z,100561.44
2023-01-12T12:07:39.827Z,100562.28
2023-01-12T12:10:39.878Z,100549.25
2023-01-12T12:13:09.139Z,100564.88
2023-01-12T12:15:51.735Z,100547.59
2023-01-12T12:18:42.190Z,100548.44
2023-01-12T12:21:27.345Z,100547.50
2023-01-12T12:24:11.269Z,100541.44
2023-01-12T12:26:44.886Z,100542.28
2023-01-12T12:29:20.097Z,100543.16
2023-01-12T12:31:52.525Z,100534.41
2023-01-12T12:34:43.307Z,100538.78
2023-01-12T12:37:26.535Z,100522.31
2023-01-12T12:40:17.852Z,100534.41
2023-01-12T12:43:07.549Z,100523.97
2023-01-12T12:45:47.006Z,100525.66
2023-01-12T12:48:15.994Z,100523.88
2023-01-12T12:51:06.944Z,100522.22
2023-01-12T12:53:41.793Z,100523.03
2023-01-12T12:56:14.386Z,100523.97
2023-01-12T12:58:47.566Z,100522.22
2023-01-12T13:01:20.301Z,100518.66
2023-01-12T13:03:52.118Z,100516.16
2023-01-12T13:06:22.434Z,100520.53
2023-01-12T13:08:51.410Z,100515.41
2023-01-12T13:11:19.333Z,100512.06
2023-01-12T13:14:01.205Z,100501.91
2023-01-12T13:16:29.330Z,100503.69
2023-01-12T13:18:55.869Z,100497.66
2023-01-12T13:21:57.082Z,100502.09
2023-01-12T13:24:29.295Z,100499.50
2023-01-12T13:26:58.700Z,100501.19
2023-01-12T13:29:28.312Z,100477.00
2023-01-12T13:32:19.322Z,100487.34
2023-01-12T13:34:48.608Z,100479.59
2023-01-12T13:37:32.804Z,100478.66
2023-01-12T13:40:08.216Z,100476.06
2023-01-12T13:42:53.236Z,100470.97
2023-01-12T13:45:21.499Z,100471.78
2023-01-12T13:47:51.475Z,100473.44
2023-01-12T13:50:21.923Z,100462.13
2023-01-12T13:53:03.552Z,100469.94
2023-01-12T13:55:33.554Z,100470.78
2023-01-12T13:58:07.067Z,100468.16
2023-01-12T14:00:34.979Z,100466.41
2023-01-12T14:03:04.401Z,100471.59
2023-01-12T14:05:47.498Z,100470.78
2023-01-12T14:08:51.136Z,100469.94
2023-01-12T14:11:28.864Z,100473.44
2023-01-12T14:14:51.713Z,100463.97
2023-01-12T14:17:45.894Z,100463.03
2023-01-12T14:20:18.177Z,100466.59
2023-01-12T14:22:47.521Z,100462.38
2023-01-12T14:25:21.065Z,100463.31
2023-01-12T14:27:55.829Z,100466.88
2023-01-12T14:30:25.415Z,100460.81
2023-01-12T14:32:53.980Z,100457.34
2023-01-12T14:35:23.464Z,100453.06
2023-01-12T14:37:54.536Z,100460.03
2023-01-12T14:40:30.761Z,100460.13
2023-01-12T14:43:16.804Z,100454.00
2023-01-12T14:46:19.715Z,100465.41
2023-01-12T14:49:04.113Z,100463.66
2023-01-12T14:51:38.502Z,100460.22
2023-01-12T14:54:04.884Z,100446.44
2023-01-12T14:56:38.858Z,100454.19
2023-01-12T14:59:14.827Z,100455.13
2023-01-12T15:01:42.587Z,100448.22
2023-01-12T15:04:19.549Z,100450.81
2023-01-12T15:06:46.469Z,100443.84
2023-01-12T15:09:29.318Z,100443.00
2023-01-12T15:11:56.318Z,100437.81
2023-01-12T15:14:26.566Z,100437.81
2023-01-12T15:17:12.172Z,100441.22
2023-01-12T15:19:57.662Z,100434.28
2023-01-12T15:22:45.596Z,100434.28
2023-01-12T15:25:36.029Z,100423.88
2023-01-12T15:28:04.433Z,100430.00
2023-01-12T15:30:33.926Z,100427.38
2023-01-12T15:33:00.437Z,100422.19
2023-01-12T15:35:29.493Z,100423.00
2023-01-12T15:37:58.011Z,100429.09
2023-01-12T15:40:26.514Z,100424.72
2023-01-12T15:42:53.696Z,100429.81
2023-01-12T15:45:29.472Z,100418.56
2023-01-12T15:47:56.400Z,100411.69
2023-01-12T15:50:23.245Z,100413.53
2023-01-12T15:52:51.147Z,100419.56
2023-01-12T15:55:20.681Z,100416.13
2023-01-12T15:57:51.418Z,100426.56
2023-01-12T16:00:23.171Z,100418.75
2023-01-12T16:02:51.576Z,100409.16
2023-01-12T16:05:21.415Z,100427.50
2023-01-12T16:07:48.867Z,100421.34
2023-01-12T16:10:16.671Z,100420.50
2023-01-12T16:13:06.924Z,100418.75
2023-01-12T16:15:34.074Z,100423.13
2023-01-12T16:18:00.576Z,100421.44
2023-01-12T16:20:27.045Z,100441.34
2023-01-12T16:22:54.858Z,100433.63
2023-01-12T16:25:21.287Z,100424.88
2023-01-12T16:28:25.624Z,100438.84
2023-01-12T16:30:52.911Z,100436.25
2023-01-12T16:33:19.543Z,100431.03
2023-01-12T16:35:45.995Z,100441.53
2023-01-12T16:38:17.084Z,100444.13
2023-01-12T16:40:45.173Z,100444.13
2023-01-12T16:43:11.955Z,100438.91
2023-01-12T16:45:42.463Z,100443.19
2023-01-12T16:48:09.051Z,100451.94
2023-01-12T16:50:40.433Z,100441.53
2023-01-12T16:53:10.986Z,100439.75
2023-01-12T16:55:38.484Z,100458.81
2023-01-12T16:58:06.439Z,100448.38
2023-01-12T17:00:35.608Z,100431.94
2023-01-12T17:03:02.985Z,100427.69
2023-01-12T17:05:30.207Z,100426.72
2023-01-12T17:07:57.280Z,100432.88
2023-01-12T17:10:24.004Z,100425.06
2023-01-12T17:12:53.425Z,100427.69
2023-01-12T17:15:25.430Z,100430.28
2023-01-12T17:17:52.205Z,100420.69
2023-01-12T17:20:19.769Z,100423.22
2023-01-12T17:22:47.883Z,100417.91
2023-01-12T17:25:15.844Z,100421.34
2023-01-12T17:27:42.924Z,100415.19
2023-01-12T17:30:10.189Z,100416.13
2023-01-12T17:32:36.865Z,100413.47
2023-01-12T17:35:05.196Z,100411.78
2023-01-12T17:37:31.661Z,100415.31
2023-01-12T17:39:58.264Z,100412.81
2023-01-12T17:42:43.059Z,100413.72
2023-01-12T17:45:09.952Z,100437.16
2023-01-12T17:47:36.451Z,100433.63
2023-01-12T17:50:02.967Z,100426.72
2023-01-12T17:52:29.475Z,100434.53
2023-01-12T17:54:56.024Z,100433.81
2023-01-12T17:57:22.710Z,100427.75
2023-01-12T17:59:50.110Z,100431.28
2023-01-12T18:02:18.071Z,100417.34
2023-01-12T18:04:44.602Z,100427.75
2023-01-12T18:07:11.122Z,100432.03
2023-01-12T18:09:37.663Z,100434.72
2023-01-12T18:12:05.141Z,100425.25
2023-01-12T18:14:31.690Z,100439.09
2023-01-12T18:16:58.128Z,100438.25
2023-01-12T18:19:24.869Z,100427.03
2023-01-12T18:21:51.327Z,100424.31
2023-01-12T18:24:17.827Z,100426.91
2023-01-12T18:26:44.505Z,100416.44
2023-01-12T18:29:11.251Z,100413.72
2023-01-12T18:31:37.933Z,100408.50
2023-01-12T18:34:06.471Z,100409.34
2023-01-12T18:36:42.128Z,100417.16
2023-01-12T18:39:12.851Z,100403.31
2023-01-12T18:41:58.136Z,100411.94
2023-01-12T18:44:25.032Z,100405.91
2023-01-12T18:47:10.555Z,100416.44
2023-01-12T18:49:37.276Z,100417.34
2023-01-12T18:52:22.785Z,100411.28
2023-01-12T18:54:51.608Z,100425.16
2023-01-12T18:57:20.640Z,100419.22
2023-01-12T18:59:48.805Z,100411.41
2023-01-12T19:02:16.597Z,100412.25
2023-01-12T19:04:52.329Z,100414.84
2023-01-12T19:07:31.441Z,100417.44
2023-01-12T19:09:59.234Z,100420.03
2023-01-12T19:12:26.252Z,100415.03
2023-01-12T19:15:11.601Z,100428.22
2023-01-12T19:17:41.703Z,100416.22
2023-01-12T19:20:14.354Z,100421.53
2023-01-12T19:23:00.057Z,100407.69
2023-01-12T19:25:46.100Z,100394.75
2023-01-12T19:28:35.147Z,100392.13
2023-01-12T19:31:07.641Z,100392.97
2023-01-12T19:33:34.090Z,100384.25
2023-01-12T19:36:13.974Z,100397.25
2023-01-12T19:38:43.370Z,100385.91
2023-01-12T19:41:30.459Z,100393.66
2023-01-12T19:43:56.858Z,100387.50
2023-01-12T19:46:23.335Z,100388.34
2023-01-12T19:48:49.808Z,100380.44
2023-01-12T19:51:16.230Z,100372.63
2023-01-12T19:53:42.714Z,100405.53
2023-01-12T19:56:11.815Z,100378.69
2023-01-12T19:58:39.083Z,100370.88
2023-01-12T20:01:05.613Z,100368.28
2023-01-12T20:03:32.138Z,100371.72
2023-01-12T20:05:58.631Z,100368.28
2023-01-12T20:08:25.795Z,100369.09
2023-01-12T20:10:57.535Z,100370.13
2023-01-12T20:13:24.378Z,100366.88
2023-01-12T20:15:50.956Z,100369.66
2023-01-12T20:18:18.696Z,100386.22
2023-01-12T20:20:45.651Z,100374.09
2023-01-12T20:23:13.331Z,100372.44
2023-01-12T20:25:41.656Z,100373.44
2023-01-12T20:28:10.183Z,100362.22
2023-01-12T20:30:38.334Z,100355.41
2023-01-12T20:33:06.499Z,100353.69
2023-01-12T20:35:38.242Z,100352.81
2023-01-12T20:38:06.952Z,100343.28
2023-01-12T20:40:34.114Z,100312.03
2023-01-12T20:43:00.748Z,100380.59
2023-01-12T20:45:27.660Z,100382.28
2023-01-12T20:47:56.054Z,100379.56
2023-01-12T20:50:25.435Z,100350.09
2023-01-12T20:52:54.187Z,100353.63
2023-01-12T20:55:21.263Z,100377.84
2023-01-12T20:57:49.201Z,100376.09
2023-01-12T21:00:17.168Z,100364.69
2023-01-12T21:02:43.629Z,100383.81
2023-01-12T21:05:10.185Z,100383.53
2023-01-12T21:07:36.742Z,100375.75
2023-01-12T21:10:03.875Z,100374.16
2023-01-12T21:12:30.397Z,100369.22
2023-01-12T21:14:56.838Z,100368.56
2023-01-12T21:17:23.407Z,100366.16
2023-01-12T21:19:49.796Z,100363.66
2023-01-12T21:22:16.495Z,100378.38
2023-01-12T21:24:42.924Z,100367.91
2023-01-12T21:27:09.352Z,100361.94
2023-01-12T21:29:35.792Z,100348.94
2023-01-12T21:32:02.293Z,100351.72
2023-01-12T21:34:28.763Z,100353.66
2023-01-12T21:36:55.202Z,100354.78
2023-01-12T21:39:21.625Z,100348.91
2023-01-12T21:42:23.209Z,100349.09
2023-01-12T21:44:49.627Z,100343.16
2023-01-12T21:47:16.035Z,100354.56
2023-01-12T21:49:42.454Z,100350.84
2023-01-12T21:52:08.935Z,100344.91
2023-01-12T21:54:35.334Z,100366.47
2023-01-12T21:57:01.791Z,100360.50
2023-01-12T21:59:28.193Z,100361.38
2023-01-12T22:01:54.689Z,100357.25
2023-01-12T22:04:21.253Z,100375.78
2023-01-12T22:06:50.913Z,100375.13
2023-01-12T22:09:17.411Z,100386.63
2023-01-12T22:11:43.891Z,100382.50
2023-01-12T22:14:10.657Z,100374.13
2023-01-12T22:16:37.114Z,100384.72
2023-01-12T22:19:03.793Z,100386.56
2023-01-12T22:21:30.197Z,100394.19
2023-01-12T22:23:56.612Z,100390.59
2023-01-12T22:26:23.063Z,100401.03
2023-01-12T22:28:49.617Z,100407.16
2023-01-12T22:31:21.030Z,100400.31
2023-01-12T22:33:54.146Z,100411.44
2023-01-12T22:36:20.583Z,100410.59
2023-01-12T22:38:46.973Z,100419.50
2023-01-12T22:41:13.673Z,100409.94
2023-01-12T22:43:42.930Z,100418.66
2023-01-12T22:46:21.157Z,100412.59
2023-01-12T22:48:51.826Z,100405.91
2023-01-12T22:51:22.656Z,100415.56
2023-01-12T22:53:49.060Z,100420.16
2023-01-12T22:56:15.526Z,100424.69
2023-01-12T22:58:46.677Z,100425.69
2023-01-12T23:01:13.923Z,100430.03
2023-01-12T23:03:40.563Z,100428.38
2023-01-12T23:06:11.333Z,100430.38
2023-01-12T23:08:37.797Z,100415.03
2023-01-12T23:11:11.112Z,100425.34
2023-01-12T23:13:37.971Z,100421.84
2023-01-12T23:16:07.231Z,100419.81
2023-01-12T23:18:35.866Z,100418.91
2023-01-12T23:21:14.190Z,100424.19
2023-01-12T23:23:43.253Z,100426.59
2023-01-12T23:26:11.842Z,100424.69
2023-01-12T23:28:41.540Z,100429.72
2023-01-12T23:31:16.770Z,100425.44
2023-01-12T23:33:43.594Z,100444.63
2023-01-12T23:36:15.808Z,100435.91
2023-01-12T23:38:43.164Z,100430.88
2023-01-12T23:41:21.777Z,100428.59
2023-01-12T23:43:49.813Z,100422.16
2023-01-12T23:46:17.211Z,100418.78
2023-01-12T23:48:43.726Z,100414.03
2023-01-12T23:51:10.486Z,100426.38
2023-01-12T23:53:36.950Z,100417.03
2023-01-12T23:56:08.804Z,100419.94
2023-01-12T23:58:36.088Z,100428.94
